createdAt,value
2018-03-16T00:01:45.259Z,7.10
2018-03-16T00:04:14.598Z,7.15
2018-03-16T00:06:43.940Z,7.13
2018-03-16T00:09:13.154Z,7.12
2018-03-16T00:11:42.348Z,7.08
2018-03-16T00:14:11.826Z,7.07
2018-03-16T00:16:41.828Z,7.11
2018-03-16T00:19:11.055Z,7.12
2018-03-16T00:21:40.306Z,7.09
2018-03-16T00:24:09.677Z,7.05
2018-03-16T00:26:39.017Z,6.99
2018-03-16T00:29:08.059Z,6.94
2018-03-16T00:31:37.279Z,7.00
2018-03-16T00:34:06.483Z,7.00
2018-03-16T00:36:35.700Z,7.01
2018-03-16T00:39:04.933Z,7.03
2018-03-16T00:41:34.901Z,6.97
2018-03-16T00:44:04.131Z,6.94
2018-03-16T00:46:34.096Z,6.91
2018-03-16T00:49:03.264Z,6.89
2018-03-16T00:51:32.510Z,6.85
2018-03-16T00:54:01.718Z,6.85
2018-03-16T00:56:30.936Z,6.79
2018-03-16T00:59:00.194Z,6.72
2018-03-16T01:01:29.475Z,6.68
2018-03-16T01:03:59.398Z,6.66
2018-03-16T01:06:28.616Z,6.64
2018-03-16T01:08:57.802Z,6.63
2018-03-16T01:11:27.027Z,6.64
2018-03-16T01:13:56.231Z,6.63
2018-03-16T01:16:25.447Z,6.60
2018-03-16T01:18:55.390Z,6.54
2018-03-16T01:21:24.603Z,6.54
2018-03-16T01:23:53.863Z,6.49
2018-03-16T01:26:23.806Z,6.43
2018-03-16T01:28:53.014Z,6.37
2018-03-16T01:31:22.442Z,6.33
2018-03-16T01:33:52.555Z,6.31
2018-03-16T01:36:21.779Z,6.29
2018-03-16T01:38:51.022Z,6.29
2018-03-16T01:41:20.225Z,6.29
2018-03-16T01:43:49.463Z,6.27
2018-03-16T01:46:18.655Z,6.28
2018-03-16T01:48:47.877Z,6.26
2018-03-16T01:51:17.095Z,6.24
2018-03-16T01:53:46.322Z,6.23
2018-03-16T01:56:15.557Z,6.25
2018-03-16T01:58:45.537Z,6.30
2018-03-16T02:01:15.423Z,6.27
2018-03-16T02:03:44.719Z,6.22
2018-03-16T02:06:14.667Z,6.20
2018-03-16T02:08:43.922Z,6.22
2018-03-16T02:11:13.143Z,6.23
2018-03-16T02:13:42.347Z,6.23
2018-03-16T02:16:11.605Z,6.21
2018-03-16T02:18:42.051Z,6.14
2018-03-16T02:21:11.270Z,6.13
2018-03-16T02:23:40.508Z,6.15
2018-03-16T02:26:10.643Z,6.15
2018-03-16T02:28:40.630Z,6.17
2018-03-16T02:31:09.847Z,6.16
2018-03-16T02:33:39.903Z,6.16
2018-03-16T02:36:09.857Z,6.16
2018-03-16T02:38:39.058Z,6.16
2018-03-16T02:41:09.270Z,6.14
2018-03-16T02:43:38.464Z,6.14
2018-03-16T02:46:07.693Z,6.17
2018-03-16T02:48:37.648Z,6.19
2018-03-16T02:51:06.867Z,6.18
2018-03-16T02:53:36.107Z,6.22
2018-03-16T02:56:06.145Z,6.19
2018-03-16T02:58:35.363Z,6.15
2018-03-16T03:01:05.390Z,6.14
2018-03-16T03:03:34.611Z,6.18
2018-03-16T03:06:03.802Z,6.16
2018-03-16T03:08:33.014Z,6.16
2018-03-16T03:11:02.219Z,6.15
2018-03-16T03:13:32.211Z,6.18
2018-03-16T03:16:01.407Z,6.23
2018-03-16T03:18:30.618Z,6.29
2018-03-16T03:21:00.127Z,6.30
2018-03-16T03:23:29.351Z,6.31
2018-03-16T03:25:58.559Z,6.23
2018-03-16T03:28:27.836Z,6.23
2018-03-16T03:30:57.779Z,6.17
2018-03-16T03:33:27.513Z,6.16
2018-03-16T03:35:56.756Z,6.16
2018-03-16T03:38:26.737Z,6.13
2018-03-16T03:40:55.951Z,6.12
2018-03-16T03:43:25.915Z,6.13
2018-03-16T03:45:55.114Z,6.10
2018-03-16T03:48:24.344Z,6.07
2018-03-16T03:50:53.590Z,6.01
2018-03-16T03:53:23.553Z,5.98
2018-03-16T03:55:52.786Z,5.97
2018-03-16T03:58:22.738Z,5.94
2018-03-16T04:00:51.952Z,5.97
2018-03-16T04:03:21.139Z,6.00
2018-03-16T04:05:50.406Z,5.99
2018-03-16T04:08:20.575Z,5.98
2018-03-16T04:10:49.818Z,5.95
2018-03-16T04:13:18.999Z,5.90
2018-03-16T04:15:48.989Z,5.87
2018-03-16T04:18:18.203Z,5.85
2018-03-16T04:20:47.438Z,5.83
2018-03-16T04:23:16.727Z,5.84
2018-03-16T04:25:46.761Z,5.82
2018-03-16T04:28:16.308Z,5.76
2018-03-16T04:30:45.662Z,5.68
2018-03-16T04:33:14.866Z,5.71
2018-03-16T04:35:44.101Z,5.67
2018-03-16T04:38:13.295Z,5.67
2018-03-16T04:40:42.514Z,5.72
2018-03-16T04:43:11.730Z,5.73
2018-03-16T04:45:40.970Z,5.67
2018-03-16T04:48:10.486Z,5.63
2018-03-16T04:50:39.674Z,5.61
2018-03-16T04:53:08.875Z,5.60
2018-03-16T04:55:38.078Z,5.60
2018-03-16T04:58:07.330Z,5.55
2018-03-16T05:00:37.339Z,5.54
2018-03-16T05:03:06.947Z,5.50
2018-03-16T05:05:36.924Z,5.52
2018-03-16T05:08:06.976Z,5.50
2018-03-16T05:10:36.948Z,5.52
2018-03-16T05:13:06.142Z,5.52
2018-03-16T05:15:35.338Z,5.51
2018-03-16T05:18:05.335Z,5.53
2018-03-16T05:20:34.532Z,5.48
2018-03-16T05:23:03.772Z,5.51
2018-03-16T05:25:32.958Z,5.49
2018-03-16T05:28:02.392Z,5.51
2018-03-16T05:30:31.590Z,5.48
2018-03-16T05:33:01.550Z,5.46
2018-03-16T05:35:30.754Z,5.50
2018-03-16T05:37:59.974Z,5.52
2018-03-16T05:40:29.219Z,5.53
2018-03-16T05:42:59.211Z,5.48
2018-03-16T05:45:28.451Z,5.44
2018-03-16T05:47:57.664Z,5.42
2018-03-16T05:50:26.860Z,5.45
2018-03-16T05:52:56.139Z,5.42
2018-03-16T05:55:25.343Z,5.42
2018-03-16T05:57:54.544Z,5.39
2018-03-16T06:00:23.771Z,5.44
2018-03-16T06:02:52.978Z,5.39
2018-03-16T06:05:22.192Z,5.34
2018-03-16T06:07:51.442Z,5.32
2018-03-16T06:10:20.625Z,5.27
2018-03-16T06:12:49.865Z,5.25
2018-03-16T06:15:19.119Z,5.25
2018-03-16T06:17:48.332Z,5.20
2018-03-16T06:20:17.664Z,5.14
2018-03-16T06:22:46.863Z,5.12
2018-03-16T06:25:16.070Z,5.09
2018-03-16T06:27:45.264Z,5.04
2018-03-16T06:30:14.520Z,5.03
2018-03-16T06:32:43.743Z,5.00
2018-03-16T06:35:13.028Z,4.96
2018-03-16T06:37:42.222Z,4.92
2018-03-16T06:40:11.446Z,4.90
2018-03-16T06:42:40.615Z,4.84
2018-03-16T06:45:09.823Z,4.80
2018-03-16T06:47:38.999Z,4.80
2018-03-16T06:50:08.242Z,4.81
2018-03-16T06:52:37.440Z,4.81
2018-03-16T06:55:06.638Z,4.76
2018-03-16T06:57:35.943Z,4.72
2018-03-16T07:00:05.135Z,4.75
2018-03-16T07:02:34.340Z,4.79
2018-03-16T07:05:03.582Z,4.73
2018-03-16T07:07:32.791Z,4.72
2018-03-16T07:10:02.126Z,4.66
2018-03-16T07:12:31.376Z,4.60
2018-03-16T07:15:38.426Z,4.57
2018-03-16T07:18:08.492Z,4.52
2018-03-16T07:20:37.702Z,4.51
2018-03-16T07:23:06.910Z,4.49
2018-03-16T07:25:36.925Z,4.45
2018-03-16T07:28:06.122Z,4.44
2018-03-16T07:30:35.340Z,4.35
2018-03-16T07:33:04.543Z,4.35
2018-03-16T07:35:34.568Z,4.34
2018-03-16T07:38:03.775Z,4.33
2018-03-16T07:40:33.775Z,4.35
2018-03-16T07:43:03.774Z,4.36
2018-03-16T07:45:38.317Z,4.36
2018-03-16T07:48:08.345Z,4.41
2018-03-16T07:50:38.322Z,4.43
2018-03-16T07:53:07.551Z,4.47
2018-03-16T07:55:36.828Z,4.47
2018-03-16T07:58:06.023Z,4.44
2018-03-16T08:00:35.221Z,4.51
2018-03-16T08:03:05.239Z,4.51
2018-03-16T08:05:34.456Z,4.52
2018-03-16T08:08:04.438Z,4.53
2018-03-16T08:10:33.668Z,4.47
2018-03-16T08:13:03.654Z,4.44
2018-03-16T08:15:32.835Z,4.42
2018-03-16T08:18:02.038Z,4.41
2018-03-16T08:20:31.236Z,4.42
2018-03-16T08:23:00.463Z,4.40
2018-03-16T08:25:29.766Z,4.43
2018-03-16T08:27:59.789Z,4.46
2018-03-16T08:30:29.032Z,4.45
2018-03-16T08:32:58.253Z,4.46
2018-03-16T08:35:28.227Z,4.48
2018-03-16T08:37:57.440Z,4.49
2018-03-16T08:40:26.639Z,4.50
2018-03-16T08:42:55.860Z,4.48
2018-03-16T08:45:25.062Z,4.50
2018-03-16T08:47:54.291Z,4.51
2018-03-16T08:50:24.255Z,4.54
2018-03-16T08:52:53.467Z,4.56
2018-03-16T08:55:22.677Z,4.52
2018-03-16T08:57:51.897Z,4.49
2018-03-16T09:00:21.878Z,4.51
2018-03-16T09:02:51.119Z,4.51
2018-03-16T09:05:20.339Z,4.54
2018-03-16T09:07:49.550Z,4.60
2018-03-16T09:10:18.763Z,4.64
2018-03-16T09:12:48.051Z,4.63
2018-03-16T09:15:17.267Z,4.65
2018-03-16T09:17:46.518Z,4.63
2018-03-16T09:20:15.717Z,4.62
2018-03-16T09:22:44.994Z,4.67
2018-03-16T09:25:14.978Z,4.66
2018-03-16T09:27:44.210Z,4.67
2018-03-16T09:30:14.216Z,4.71
2018-03-16T09:32:43.434Z,4.76
2018-03-16T09:35:12.835Z,4.83
2018-03-16T09:37:42.100Z,4.83
2018-03-16T09:40:11.355Z,4.87
2018-03-16T09:42:40.827Z,4.94
2018-03-16T09:45:10.790Z,4.96
2018-03-16T09:47:40.013Z,4.90
2018-03-16T09:50:09.225Z,4.92
2018-03-16T09:52:38.450Z,4.97
2018-03-16T09:55:25.532Z,5.05
2018-03-16T09:57:54.772Z,5.12
2018-03-16T10:00:23.972Z,5.18
2018-03-16T10:02:53.194Z,5.23
2018-03-16T10:05:22.462Z,5.29
2018-03-16T10:07:51.664Z,5.33
2018-03-16T10:10:20.888Z,5.28
2018-03-16T10:12:50.203Z,5.28
2018-03-16T10:15:19.458Z,5.29
2018-03-16T10:17:48.949Z,5.24
2018-03-16T10:20:18.986Z,5.26
2018-03-16T10:22:48.956Z,5.27
2018-03-16T10:25:18.163Z,5.29
2018-03-16T10:27:48.251Z,5.27
2018-03-16T10:30:17.476Z,5.26
2018-03-16T10:32:46.686Z,5.27
2018-03-16T10:35:16.656Z,5.26
2018-03-16T10:37:45.866Z,5.26
2018-03-16T10:40:15.094Z,5.31
2018-03-16T10:42:44.525Z,5.42
2018-03-16T10:45:13.746Z,5.55
2018-03-16T10:47:42.983Z,5.67
2018-03-16T10:50:13.029Z,5.74
2018-03-16T10:52:42.999Z,5.76
2018-03-16T10:55:12.177Z,5.70
2018-03-16T10:57:41.372Z,5.61
2018-03-16T11:00:10.591Z,5.57
2018-03-16T11:02:45.248Z,5.64
2018-03-16T11:05:18.625Z,5.59
2018-03-16T11:08:05.396Z,5.52
2018-03-16T11:10:35.360Z,5.44
2018-03-16T11:13:05.367Z,5.38
2018-03-16T11:15:35.304Z,5.28
2018-03-16T11:18:04.501Z,5.20
2018-03-16T11:20:33.725Z,5.18
2018-03-16T11:23:02.920Z,5.22
2018-03-16T11:25:32.116Z,5.26
2018-03-16T11:28:01.318Z,5.26
2018-03-16T11:30:30.839Z,5.20
2018-03-16T11:32:59.983Z,5.15
2018-03-16T11:35:29.264Z,5.14
2018-03-16T11:37:58.502Z,5.09
2018-03-16T11:40:27.723Z,5.14
2018-03-16T11:42:57.173Z,5.17
2018-03-16T11:45:26.390Z,5.16
2018-03-16T11:47:55.595Z,5.08
2018-03-16T11:50:24.921Z,5.08
2018-03-16T11:52:54.114Z,5.04
2018-03-16T11:55:23.704Z,5.01
2018-03-16T11:57:53.700Z,4.99
2018-03-16T12:00:23.234Z,4.97
2018-03-16T12:02:52.527Z,4.94
2018-03-16T12:05:22.498Z,4.98
2018-03-16T12:07:52.562Z,5.00
2018-03-16T12:10:21.846Z,4.97
2018-03-16T12:12:51.173Z,4.98
2018-03-16T12:15:20.439Z,4.98
2018-03-16T12:17:49.666Z,4.92
2018-03-16T12:20:18.851Z,4.88
2018-03-16T12:22:48.071Z,4.87
2018-03-16T12:25:17.268Z,4.89
2018-03-16T12:27:46.484Z,4.93
2018-03-16T12:30:15.766Z,4.93
2018-03-16T12:32:44.979Z,4.92
2018-03-16T12:35:14.224Z,4.82
2018-03-16T12:37:43.391Z,4.71
2018-03-16T12:40:13.371Z,4.68
2018-03-16T12:42:42.648Z,4.66
2018-03-16T12:45:12.565Z,4.68
2018-03-16T12:47:41.810Z,4.65
2018-03-16T12:50:11.845Z,4.64
2018-03-16T12:52:41.832Z,4.63
2018-03-16T12:55:11.040Z,4.64
2018-03-16T12:57:40.498Z,4.61
2018-03-16T13:00:09.724Z,4.58
2018-03-16T13:02:39.839Z,4.55
2018-03-16T13:05:09.058Z,4.49
2018-03-16T13:07:38.405Z,4.51
2018-03-16T13:10:07.613Z,4.54
2018-03-16T13:12:37.672Z,4.51
2018-03-16T13:15:06.887Z,4.51
2018-03-16T13:17:36.859Z,4.45
2018-03-16T13:20:06.082Z,4.46
2018-03-16T13:22:35.301Z,4.41
2018-03-16T13:25:05.277Z,4.34
2018-03-16T13:27:34.559Z,4.28
2018-03-16T13:30:03.808Z,4.22
2018-03-16T13:32:33.784Z,4.19
2018-03-16T13:35:03.058Z,4.10
2018-03-16T13:37:32.267Z,4.08
2018-03-16T13:40:01.501Z,4.08
2018-03-16T13:42:30.703Z,4.09
2018-03-16T13:44:59.973Z,4.09
2018-03-16T13:47:29.245Z,4.07
2018-03-16T13:49:58.504Z,4.09
2018-03-16T13:52:28.496Z,4.12
2018-03-16T13:54:57.711Z,4.13
2018-03-16T13:57:27.164Z,4.16
2018-03-16T13:59:56.418Z,4.10
2018-03-16T14:02:25.648Z,4.06
2018-03-16T14:04:54.838Z,3.99
2018-03-16T14:07:24.063Z,3.96
2018-03-16T14:09:53.287Z,3.84
2018-03-16T14:12:22.617Z,3.83
2018-03-16T14:14:51.815Z,3.82
2018-03-16T14:17:21.793Z,3.81
2018-03-16T14:19:51.029Z,3.79
2018-03-16T14:22:21.110Z,3.76
2018-03-16T14:24:50.359Z,3.73
2018-03-16T14:27:19.605Z,3.74
2018-03-16T14:29:48.822Z,3.77
2018-03-16T14:32:18.036Z,3.79
2018-03-16T14:34:48.226Z,3.76
2018-03-16T14:37:17.475Z,3.78
2018-03-16T14:39:46.694Z,3.74
2018-03-16T14:42:16.002Z,3.76
2018-03-16T14:44:45.181Z,3.77
2018-03-16T14:47:14.470Z,3.77
2018-03-16T14:49:43.626Z,3.73
2018-03-16T14:52:12.849Z,3.71
2018-03-16T14:54:42.961Z,3.66
2018-03-16T14:57:13.149Z,3.62
2018-03-16T14:59:42.368Z,3.65
2018-03-16T15:02:11.729Z,3.69
2018-03-16T15:04:40.936Z,3.67
2018-03-16T15:07:10.219Z,3.64
2018-03-16T15:09:39.463Z,3.57
2018-03-16T15:12:09.535Z,3.52
2018-03-16T15:14:38.803Z,3.50
2018-03-16T15:17:08.811Z,3.44
2018-03-16T15:19:38.821Z,3.32
2018-03-16T15:22:08.835Z,3.27
2018-03-16T15:24:38.866Z,3.20
2018-03-16T15:27:08.867Z,3.20
2018-03-16T15:29:39.000Z,3.22
2018-03-16T15:32:08.144Z,3.21
2018-03-16T15:34:37.336Z,3.25
2018-03-16T15:37:06.567Z,3.23
2018-03-16T15:39:35.786Z,3.17
2018-03-16T15:42:05.827Z,3.16
2018-03-16T15:44:35.091Z,3.15
2018-03-16T15:47:05.539Z,3.11
2018-03-16T15:49:34.748Z,3.09
2018-03-16T15:52:03.990Z,3.09
2018-03-16T15:54:33.986Z,3.07
2018-03-16T15:57:03.197Z,3.02
2018-03-16T15:59:32.431Z,3.05
2018-03-16T16:02:01.667Z,3.08
2018-03-16T16:04:30.866Z,3.09
2018-03-16T16:07:00.096Z,3.08
2018-03-16T16:09:29.411Z,3.09
2018-03-16T16:11:59.424Z,3.01
2018-03-16T16:14:28.662Z,2.94
2018-03-16T16:16:57.994Z,2.94
2018-03-16T16:19:27.264Z,2.94
2018-03-16T16:21:57.370Z,2.91
2018-03-16T16:24:26.853Z,2.80
2018-03-16T16:26:56.095Z,2.74
2018-03-16T16:29:25.344Z,2.65
2018-03-16T16:31:54.574Z,2.60
2018-03-16T16:34:23.793Z,2.59
2018-03-16T16:36:53.029Z,2.57
2018-03-16T16:39:22.263Z,2.58
2018-03-16T16:41:51.463Z,2.51
2018-03-16T16:44:20.667Z,2.48
2018-03-16T16:46:49.898Z,2.40
2018-03-16T16:49:19.126Z,2.30
2018-03-16T16:51:48.369Z,2.26
2018-03-16T16:54:17.561Z,2.22
2018-03-16T16:56:46.780Z,2.24
2018-03-16T16:59:16.003Z,2.26
2018-03-16T17:01:45.207Z,2.23
2018-03-16T17:04:14.659Z,2.24
2018-03-16T17:06:43.864Z,2.24
2018-03-16T17:09:13.927Z,2.18
2018-03-16T17:11:43.936Z,2.17
2018-03-16T17:14:13.142Z,2.14
2018-03-16T17:16:42.369Z,2.06
2018-03-16T17:19:11.567Z,1.98
2018-03-16T17:21:40.816Z,1.94
2018-03-16T17:24:10.060Z,1.92
2018-03-16T17:26:39.330Z,1.94
2018-03-16T17:29:08.552Z,1.90
2018-03-16T17:31:38.514Z,1.91
2018-03-16T17:34:07.739Z,1.86
2018-03-16T17:36:37.027Z,1.89
2018-03-16T17:39:06.204Z,1.86
2018-03-16T17:41:35.496Z,1.90
2018-03-16T17:44:04.729Z,1.89
2018-03-16T17:46:33.992Z,1.87
2018-03-16T17:49:03.214Z,1.85
2018-03-16T17:51:32.439Z,1.79
2018-03-16T17:54:02.455Z,1.81
2018-03-16T17:56:32.452Z,1.77
2018-03-16T17:59:01.725Z,1.74
2018-03-16T18:01:30.927Z,1.76
2018-03-16T18:04:00.164Z,1.74
2018-03-16T18:06:29.460Z,1.74
2018-03-16T18:08:58.703Z,1.71
2018-03-16T18:11:27.907Z,1.76
2018-03-16T18:13:57.151Z,1.77
2018-03-16T18:16:26.367Z,1.75
2018-03-16T18:18:55.625Z,1.73
2018-03-16T18:21:25.009Z,1.71
2018-03-16T18:23:54.230Z,1.72
2018-03-16T18:26:23.458Z,1.68
2018-03-16T18:28:53.496Z,1.68
2018-03-16T18:31:22.856Z,1.67
2018-03-16T18:33:52.079Z,1.67
2018-03-16T18:36:22.072Z,1.62
2018-03-16T18:38:52.083Z,1.62
2018-03-16T18:41:21.372Z,1.59
2018-03-16T18:43:50.786Z,1.52
2018-03-16T18:46:20.783Z,1.49
2018-03-16T18:48:50.019Z,1.43
2018-03-16T18:51:20.107Z,1.38
2018-03-16T18:53:49.430Z,1.35
2018-03-16T18:56:18.806Z,1.35
2018-03-16T18:58:48.020Z,1.36
2018-03-16T19:01:18.010Z,1.32
2018-03-16T19:03:47.228Z,1.31
2018-03-16T19:06:16.477Z,1.30
2018-03-16T19:08:45.778Z,1.29
2018-03-16T19:11:15.878Z,1.23
2018-03-16T19:13:45.900Z,1.18
2018-03-16T19:16:15.260Z,1.19
2018-03-16T19:18:44.496Z,1.19
2018-03-16T19:21:14.480Z,1.19
2018-03-16T19:23:43.837Z,1.16
2018-03-16T19:26:13.110Z,1.13
2018-03-16T19:28:43.135Z,1.08
2018-03-16T19:31:13.113Z,1.07
2018-03-16T19:33:42.338Z,1.09
2018-03-16T19:36:12.342Z,1.11
2018-03-16T19:38:42.424Z,1.07
2018-03-16T19:41:11.625Z,1.02
2018-03-16T19:43:40.859Z,1.06
2018-03-16T19:46:10.910Z,1.06
2018-03-16T19:48:40.225Z,1.04
2018-03-16T19:51:09.528Z,1.01
2018-03-16T19:53:38.779Z,1.00
2018-03-16T19:56:09.022Z,0.98
2018-03-16T19:58:38.988Z,0.97
2018-03-16T20:01:08.186Z,0.98
2018-03-16T20:03:37.416Z,0.98
2018-03-16T20:06:06.657Z,1.00
2018-03-16T20:08:35.888Z,0.95
2018-03-16T20:11:05.966Z,0.94
2018-03-16T20:13:35.403Z,0.95
2018-03-16T20:16:04.612Z,0.98
2018-03-16T20:18:34.705Z,0.98
2018-03-16T20:21:03.956Z,0.98
2018-03-16T20:23:33.191Z,1.00
2018-03-16T20:26:02.458Z,1.00
2018-03-16T20:28:31.674Z,1.02
2018-03-16T20:31:00.952Z,1.03
2018-03-16T20:33:30.168Z,1.03
2018-03-16T20:35:59.643Z,1.02
2018-03-16T20:38:29.738Z,0.96
2018-03-16T20:40:59.739Z,0.98
2018-03-16T20:43:29.001Z,0.96
2018-03-16T20:45:58.226Z,0.96
2018-03-16T20:48:27.446Z,0.95
2018-03-16T20:50:56.704Z,0.89
2018-03-16T20:53:25.924Z,0.89
2018-03-16T20:55:55.154Z,0.89
2018-03-16T20:58:25.157Z,0.85
2018-03-16T21:00:55.157Z,0.87
2018-03-16T21:03:24.429Z,0.88
2018-03-16T21:05:53.712Z,0.89
2018-03-16T21:08:22.958Z,0.86
2018-03-16T21:10:52.183Z,0.83
2018-03-16T21:13:22.150Z,0.78
2018-03-16T21:15:51.379Z,0.78
2018-03-16T21:18:21.380Z,0.80
2018-03-16T21:20:51.444Z,0.77
2018-03-16T21:23:20.634Z,0.78
2018-03-16T21:25:49.952Z,0.77
2018-03-16T21:28:19.508Z,0.76
2018-03-16T21:30:49.697Z,0.78
2018-03-16T21:33:19.987Z,0.77
2018-03-16T21:35:49.209Z,0.79
2018-03-16T21:38:18.431Z,0.79
2018-03-16T21:40:49.190Z,0.79
2018-03-16T21:43:18.391Z,0.83
2018-03-16T21:45:47.881Z,0.83
2018-03-16T21:48:18.699Z,0.90
2018-03-16T21:50:47.935Z,0.86
2018-03-16T21:53:18.670Z,0.84
2018-03-16T21:55:48.675Z,0.82
2018-03-16T21:58:18.668Z,0.84
2018-03-16T22:00:47.947Z,0.81
2018-03-16T22:03:17.237Z,0.76
2018-03-16T22:05:46.491Z,0.75
2018-03-16T22:08:16.475Z,0.79
2018-03-16T22:10:45.848Z,0.77
2018-03-16T22:13:15.074Z,0.72
2018-03-16T22:15:44.289Z,0.73
2018-03-16T22:18:13.603Z,0.72
2018-03-16T22:20:43.747Z,0.71
2018-03-16T22:23:12.992Z,0.73
2018-03-16T22:25:42.171Z,0.76
2018-03-16T22:28:11.411Z,0.78
2018-03-16T22:30:41.402Z,0.73
2018-03-16T22:33:10.618Z,0.66
2018-03-16T22:35:40.631Z,0.63
2018-03-16T22:38:09.895Z,0.54
2018-03-16T22:40:39.108Z,0.46
2018-03-16T22:43:08.366Z,0.39
2018-03-16T22:45:37.616Z,0.29
2018-03-16T22:48:06.847Z,0.26
2018-03-16T22:50:36.813Z,0.21
2018-03-16T22:53:06.068Z,0.19
2018-03-16T22:55:35.321Z,0.22
2018-03-16T22:58:05.315Z,0.16
2018-03-16T23:00:34.545Z,0.15
2018-03-16T23:03:03.780Z,0.14
2018-03-16T23:05:32.979Z,0.10
2018-03-16T23:08:02.195Z,0.09
2018-03-16T23:10:31.446Z,0.02
2018-03-16T23:13:01.490Z,0.06
2018-03-16T23:15:30.814Z,0.04
2018-03-16T23:18:00.050Z,0.02
2018-03-16T23:20:29.564Z,0.01
2018-03-16T23:22:59.548Z,0.01
2018-03-16T23:25:28.786Z,-0.01
2018-03-16T23:27:58.754Z,0.03
2018-03-16T23:30:28.027Z,0.06
2018-03-16T23:32:57.243Z,0.08
2018-03-16T23:35:26.488Z,0.02
2018-03-16T23:37:56.468Z,-0.01
2018-03-16T23:40:25.699Z,0.00
2018-03-16T23:42:55.834Z,-0.02
2018-03-16T23:45:25.106Z,-0.02
2018-03-16T23:47:54.312Z,-0.03
2018-03-16T23:50:24.386Z,-0.04
2018-03-16T23:52:53.642Z,-0.03
2018-03-16T23:55:23.640Z,-0.01
2018-03-16T23:57:52.884Z,-0.06
